Time;durP1;ratioP1;P1;durP2;ratioP2;P2;SDS_P1;SDS_P2;PMS_P1;PMS_P2;Temp;Humidity;BMP_temperature;BMP_pressure;BME280_temperature;BME280_humidity;BME280_pressure;Samples;Min_cycle;Max_cycle;Signal;HPM_P1;HPM_P2
2021/08/19 00:02:25;;;;;;;10.80;8.87;;;18.70;95.50;;;;;;5055180;28;20441;-76
2021/08/19 00:04:52;;;;;;;9.87;8.40;;;18.70;95.60;;;;;;5055220;28;20450;-76
2021/08/19 00:07:19;;;;;;;10.87;8.70;;;18.80;95.60;;;;;;5054753;28;20999;-76
2021/08/19 00:09:46;;;;;;;9.93;8.93;;;18.80;95.50;;;;;;5055046;28;20453;-76
2021/08/19 00:12:13;;;;;;;11.13;8.57;;;18.80;95.40;;;;;;5054977;28;20478;-76
2021/08/19 00:14:40;;;;;;;14.20;10.20;;;18.80;95.30;;;;;;5053687;28;20426;-76
2021/08/19 00:17:09;;;;;;;10.03;8.87;;;18.70;95.30;;;;;;5054588;28;20801;-76
2021/08/19 00:19:36;;;;;;;11.63;8.70;;;18.80;95.40;;;;;;5054933;28;20547;-76
2021/08/19 00:22:03;;;;;;;11.37;9.30;;;18.80;95.50;;;;;;5054875;28;20520;-76
2021/08/19 00:24:30;;;;;;;9.30;8.27;;;18.80;95.30;;;;;;5054888;28;20445;-76
2021/08/19 00:26:57;;;;;;;15.63;9.20;;;18.70;95.40;;;;;;5054776;28;20445;-76
2021/08/19 00:29:24;;;;;;;15.27;9.27;;;18.70;95.30;;;;;;5054689;28;20469;-76
2021/08/19 00:31:50;;;;;;;13.87;9.37;;;18.70;95.40;;;;;;5054604;28;20480;-76
2021/08/19 00:34:18;;;;;;;14.40;10.03;;;18.80;95.50;;;;;;5054349;28;20445;-76
2021/08/19 00:36:45;;;;;;;19.90;13.17;;;18.80;95.30;;;;;;5054665;28;20812;-76
2021/08/19 00:39:12;;;;;;;20.77;12.43;;;18.80;95.50;;;;;;5054465;28;20542;-76
2021/08/19 00:41:39;;;;;;;15.33;9.77;;;18.80;95.50;;;;;;5054471;28;20837;-76
2021/08/19 00:44:06;;;;;;;10.00;9.00;;;18.80;95.40;;;;;;5054158;28;20947;-76
2021/08/19 00:46:35;;;;;;;11.17;8.73;;;18.80;95.50;;;;;;5054339;28;20482;-76
2021/08/19 00:49:03;;;;;;;10.43;8.87;;;18.80;95.40;;;;;;5054469;28;20457;-76
2021/08/19 00:51:34;;;;;;;10.37;9.33;;;18.80;95.60;;;;;;5054250;28;20851;-76
2021/08/19 00:54:01;;;;;;;11.40;9.47;;;18.80;95.30;;;;;;5054325;28;20434;-75
2021/08/19 00:56:28;;;;;;;12.50;8.50;;;18.80;95.40;;;;;;5054811;28;20453;-75
2021/08/19 00:58:57;;;;;;;12.00;9.20;;;18.80;95.40;;;;;;5053858;28;20462;-75
2021/08/19 01:01:24;;;;;;;12.17;8.73;;;18.80;95.40;;;;;;5054155;28;20478;-76
2021/08/19 01:03:50;;;;;;;11.33;9.50;;;18.80;95.50;;;;;;5054056;28;20446;-75
2021/08/19 01:06:17;;;;;;;10.90;8.30;;;18.70;95.30;;;;;;5054037;28;20445;-76
2021/08/19 01:08:45;;;;;;;10.80;9.40;;;18.80;95.30;;;;;;5053924;28;20469;-75
2021/08/19 01:11:12;;;;;;;11.93;9.10;;;18.80;95.40;;;;;;5053587;28;20886;-75
2021/08/19 01:13:39;;;;;;;11.00;9.30;;;18.70;95.40;;;;;;5054215;28;20442;-75
2021/08/19 01:16:06;;;;;;;17.53;9.40;;;18.80;95.50;;;;;;5053896;28;20472;-76
2021/08/19 01:18:40;;;;;;;10.97;8.87;;;18.80;95.40;;;;;;5053690;28;20838;-75
2021/08/19 01:21:07;;;;;;;12.03;9.47;;;18.80;95.30;;;;;;5053718;28;20955;-75
2021/08/19 01:23:34;;;;;;;10.70;9.10;;;18.80;95.70;;;;;;5053910;28;20445;-75
2021/08/19 01:26:07;;;;;;;9.83;8.57;;;18.80;95.20;;;;;;5053200;28;20900;-75
2021/08/19 01:28:35;;;;;;;11.30;8.83;;;18.70;95.20;;;;;;5053623;28;20470;-75
2021/08/19 01:31:02;;;;;;;9.87;8.90;;;18.70;95.30;;;;;;5053564;28;20855;-75
2021/08/19 01:33:30;;;;;;;9.80;8.80;;;18.70;95.40;;;;;;5053751;28;20449;-75
2021/08/19 01:35:57;;;;;;;12.53;8.70;;;18.70;95.40;;;;;;5053605;28;20437;-75
2021/08/19 01:38:29;;;;;;;10.00;8.90;;;18.70;95.70;;;;;;5053561;28;20466;-75
2021/08/19 01:40:55;;;;;;;10.40;9.30;;;18.70;95.40;;;;;;5053523;28;20464;-75
2021/08/19 01:43:24;;;;;;;11.67;9.00;;;18.80;95.40;;;;;;5053626;28;20856;-75
2021/08/19 01:45:53;;;;;;;11.97;9.10;;;18.70;95.20;;;;;;5053863;28;20492;-75
2021/08/19 01:48:19;;;;;;;13.70;8.77;;;18.70;95.20;;;;;;5054102;28;20489;-75
2021/08/19 01:50:46;;;;;;;10.43;8.20;;;18.70;95.20;;;;;;5053458;28;20450;-75
2021/08/19 01:53:13;;;;;;;10.80;8.67;;;18.70;95.40;;;;;;5053424;28;20481;-75
2021/08/19 01:55:40;;;;;;;10.37;8.23;;;18.70;95.30;;;;;;5053518;28;20449;-75
2021/08/19 01:58:07;;;;;;;14.33;8.60;;;18.70;95.30;;;;;;5053258;28;20881;-75
2021/08/19 02:00:34;;;;;;;11.40;9.60;;;18.70;95.20;;;;;;5053324;28;20481;-75
2021/08/19 02:03:02;;;;;;;9.50;8.50;;;18.80;95.20;;;;;;5054138;28;20468;-75
2021/08/19 02:05:29;;;;;;;10.43;8.50;;;18.80;95.10;;;;;;5053029;28;20503;-75
2021/08/19 02:07:56;;;;;;;12.93;9.20;;;18.80;95.00;;;;;;5053208;28;20833;-75
2021/08/19 02:10:22;;;;;;;11.57;9.23;;;18.80;94.80;;;;;;5053323;28;20444;-75
2021/08/19 02:12:49;;;;;;;10.10;8.67;;;18.80;94.80;;;;;;5053473;28;20470;-75
2021/08/19 02:15:16;;;;;;;11.83;8.90;;;18.80;94.90;;;;;;5053313;28;20446;-75
2021/08/19 02:17:42;;;;;;;8.53;7.63;;;18.70;95.00;;;;;;5053180;28;20465;-75
2021/08/19 02:20:11;;;;;;;9.73;8.47;;;18.70;95.20;;;;;;5053134;28;20452;-75
2021/08/19 02:22:38;;;;;;;11.93;8.83;;;18.70;95.20;;;;;;5053194;28;20442;-75
2021/08/19 02:25:05;;;;;;;9.73;8.80;;;18.70;95.10;;;;;;5053126;28;20442;-75
2021/08/19 02:27:32;;;;;;;11.07;9.47;;;18.70;95.50;;;;;;5053708;28;20465;-75
2021/08/19 02:29:59;;;;;;;13.40;8.63;;;18.70;95.20;;;;;;5053382;28;20517;-75
2021/08/19 02:32:26;;;;;;;10.40;8.93;;;18.70;95.10;;;;;;5052750;28;20907;-75
2021/08/19 02:34:52;;;;;;;10.47;8.10;;;18.70;95.00;;;;;;5053118;28;20453;-75
2021/08/19 02:37:21;;;;;;;12.27;8.63;;;18.70;95.00;;;;;;5054224;28;20453;-75
2021/08/19 02:39:47;;;;;;;10.30;7.83;;;18.70;95.50;;;;;;5056963;28;20445;-75
2021/08/19 02:42:14;;;;;;;15.50;9.20;;;18.70;95.40;;;;;;5056933;28;20437;-75
2021/08/19 02:44:41;;;;;;;11.53;8.63;;;18.60;95.20;;;;;;5056758;28;20457;-76
2021/08/19 02:47:08;;;;;;;12.03;8.70;;;18.70;95.40;;;;;;5057035;28;20437;-75
2021/08/19 02:49:34;;;;;;;10.77;9.67;;;18.60;95.60;;;;;;5056703;28;20449;-75
2021/08/19 02:52:01;;;;;;;12.73;8.80;;;18.70;95.50;;;;;;5056664;28;20468;-75
2021/08/19 02:54:29;;;;;;;10.70;8.60;;;18.60;95.50;;;;;;5056744;28;20475;-76
2021/08/19 02:56:56;;;;;;;9.77;8.30;;;18.60;95.30;;;;;;5056623;28;20816;-76
2021/08/19 02:59:23;;;;;;;8.33;7.53;;;18.60;95.40;;;;;;5056437;28;20484;-76
2021/08/19 03:01:50;;;;;;;11.77;8.10;;;18.60;95.50;;;;;;5056457;28;20441;-76
2021/08/19 03:04:16;;;;;;;12.77;8.50;;;18.60;95.60;;;;;;5056427;28;20442;-76
2021/08/19 03:06:43;;;;;;;10.20;7.70;;;18.60;95.80;;;;;;5056508;28;20445;-75
2021/08/19 03:09:10;;;;;;;10.13;8.70;;;18.60;95.70;;;;;;5056021;28;20971;-76
2021/08/19 03:11:38;;;;;;;10.70;7.83;;;18.50;95.60;;;;;;5056282;28;20446;-75
2021/08/19 03:14:05;;;;;;;10.90;8.70;;;18.50;95.50;;;;;;5056394;28;20456;-75
2021/08/19 03:16:32;;;;;;;9.50;8.40;;;18.50;95.50;;;;;;5056506;28;20448;-75
2021/08/19 03:19:00;;;;;;;9.00;7.80;;;18.60;95.60;;;;;;5056046;28;20461;-75
2021/08/19 03:21:26;;;;;;;11.70;8.50;;;18.60;95.50;;;;;;5056357;28;20545;-75
2021/08/19 03:23:53;;;;;;;9.87;7.77;;;18.60;95.40;;;;;;5056183;28;20446;-75
2021/08/19 03:26:20;;;;;;;10.13;8.53;;;18.50;95.30;;;;;;5056141;28;20445;-75
2021/08/19 03:28:48;;;;;;;8.70;7.00;;;18.50;95.40;;;;;;5055587;28;20998;-75
2021/08/19 03:31:15;;;;;;;9.50;8.50;;;18.50;95.50;;;;;;5055982;28;20457;-75
2021/08/19 03:33:43;;;;;;;10.30;6.77;;;18.50;95.40;;;;;;5055711;28;20481;-75
2021/08/19 03:36:10;;;;;;;11.00;7.87;;;18.60;95.20;;;;;;5056171;28;20515;-75
2021/08/19 03:38:37;;;;;;;10.20;7.67;;;18.60;95.20;;;;;;5055724;28;20480;-75
2021/08/19 03:41:03;;;;;;;8.23;7.40;;;18.50;95.10;;;;;;5056829;28;20430;-75
2021/08/19 03:43:30;;;;;;;9.43;8.47;;;18.50;95.20;;;;;;5055848;28;20445;-75
2021/08/19 03:45:58;;;;;;;8.80;7.90;;;18.50;95.10;;;;;;5055417;28;20452;-75
2021/08/19 03:48:25;;;;;;;9.43;8.47;;;18.50;95.10;;;;;;5055428;28;20468;-75
2021/08/19 03:50:52;;;;;;;10.90;8.90;;;18.50;95.00;;;;;;5055261;28;20454;-75
2021/08/19 03:53:18;;;;;;;10.00;9.00;;;18.50;95.00;;;;;;5055548;28;20481;-75
2021/08/19 03:55:45;;;;;;;9.70;8.73;;;18.40;95.10;;;;;;5055483;28;20441;-75
2021/08/19 03:58:12;;;;;;;8.63;7.63;;;18.40;95.30;;;;;;5055367;28;20461;-75
2021/08/19 04:00:39;;;;;;;9.07;7.17;;;18.40;95.60;;;;;;5054912;28;20489;-75
2021/08/19 04:03:07;;;;;;;9.20;7.53;;;18.40;95.30;;;;;;5055337;28;20437;-75
2021/08/19 04:05:34;;;;;;;10.60;8.03;;;18.50;95.10;;;;;;5055364;28;20437;-75
2021/08/19 04:08:00;;;;;;;8.80;7.90;;;18.50;95.10;;;;;;5055198;28;20468;-75
2021/08/19 04:10:27;;;;;;;9.07;7.43;;;18.50;95.20;;;;;;5055112;28;20816;-75
2021/08/19 04:12:54;;;;;;;9.83;7.20;;;18.50;95.10;;;;;;5055400;28;20472;-75
2021/08/19 04:15:20;;;;;;;9.23;6.53;;;18.50;95.00;;;;;;5055225;28;20449;-75
2021/08/19 04:17:48;;;;;;;7.30;6.13;;;18.50;94.80;;;;;;5054689;28;20983;-75
2021/08/19 04:20:16;;;;;;;7.10;6.40;;;18.60;94.90;;;;;;5054991;28;20452;-75
2021/08/19 04:22:42;;;;;;;8.87;7.00;;;18.60;94.90;;;;;;5054994;28;20464;-75
2021/08/19 04:25:10;;;;;;;11.20;6.33;;;18.60;94.80;;;;;;5055059;28;20446;-75
2021/08/19 04:27:37;;;;;;;7.50;6.67;;;18.50;94.70;;;;;;5055217;28;20461;-76
2021/08/19 04:30:04;;;;;;;8.13;6.43;;;18.50;94.70;;;;;;5055150;28;20445;-75
2021/08/19 04:32:31;;;;;;;8.13;6.20;;;18.50;94.80;;;;;;5055074;28;20477;-76
2021/08/19 04:34:57;;;;;;;7.17;6.57;;;18.50;94.70;;;;;;5055638;28;20441;-76
2021/08/19 04:37:26;;;;;;;7.80;6.13;;;18.50;94.60;;;;;;5056645;28;20500;-75
2021/08/19 04:39:53;;;;;;;10.20;6.77;;;18.50;94.50;;;;;;5057402;28;20833;-76
2021/08/19 04:42:21;;;;;;;6.40;5.80;;;18.50;94.70;;;;;;5055575;28;20428;-75
2021/08/19 04:44:48;;;;;;;6.97;6.27;;;18.50;94.90;;;;;;5054583;28;20452;-75
2021/08/19 04:47:14;;;;;;;8.17;6.20;;;18.50;94.40;;;;;;5054577;28;20449;-75
2021/08/19 04:49:41;;;;;;;7.80;6.37;;;18.50;94.60;;;;;;5054575;28;20448;-75
2021/08/19 04:52:08;;;;;;;8.17;7.30;;;18.50;94.70;;;;;;5061240;28;20449;-76
2021/08/19 04:54:36;;;;;;;10.13;7.03;;;18.60;94.50;;;;;;5054496;28;20567;-76
2021/08/19 04:57:04;;;;;;;8.30;6.17;;;18.50;94.40;;;;;;5054266;28;20453;-76
2021/08/19 04:59:30;;;;;;;6.73;5.97;;;18.50;94.50;;;;;;5053681;28;20480;-76
2021/08/19 05:01:57;;;;;;;9.20;7.63;;;18.50;94.60;;;;;;5054119;28;20449;-76
2021/08/19 05:04:25;;;;;;;7.47;6.77;;;18.50;94.70;;;;;;5054250;28;20863;-76
2021/08/19 05:06:52;;;;;;;12.03;6.57;;;18.50;94.70;;;;;;5054145;28;20532;-76
2021/08/19 05:09:19;;;;;;;7.60;6.90;;;18.50;94.80;;;;;;5054064;28;20477;-76
2021/08/19 05:11:47;;;;;;;8.53;6.60;;;18.50;94.70;;;;;;5054126;28;20446;-76
2021/08/19 05:14:14;;;;;;;9.40;6.90;;;18.40;94.80;;;;;;5054029;28;20481;-76
2021/08/19 05:16:40;;;;;;;7.93;7.13;;;18.50;94.90;;;;;;5054038;28;20839;-76
2021/08/19 05:19:07;;;;;;;10.73;7.50;;;18.50;94.70;;;;;;5053945;28;20469;-76
2021/08/19 05:21:34;;;;;;;7.13;6.53;;;18.40;95.10;;;;;;5053713;28;20442;-76
2021/08/19 05:24:00;;;;;;;9.10;7.50;;;18.50;94.80;;;;;;5053568;28;20849;-76
2021/08/19 05:26:27;;;;;;;8.57;6.83;;;18.50;94.60;;;;;;5053864;28;20446;-76
2021/08/19 05:28:55;;;;;;;9.00;7.80;;;18.50;94.50;;;;;;5053760;28;20458;-76
2021/08/19 05:31:22;;;;;;;8.80;6.50;;;18.50;94.50;;;;;;5055748;28;20453;-77
2021/08/19 05:33:49;;;;;;;8.47;7.40;;;18.50;94.50;;;;;;5057479;28;20481;-77
2021/08/19 05:36:16;;;;;;;12.60;7.50;;;18.50;94.50;;;;;;5055086;28;20470;-77
2021/08/19 05:38:42;;;;;;;9.80;8.67;;;18.50;94.70;;;;;;5053762;28;20477;-76
2021/08/19 05:41:09;;;;;;;9.73;8.87;;;18.50;94.70;;;;;;5054739;28;20453;-76
2021/08/19 05:43:36;;;;;;;13.30;10.80;;;18.50;94.70;;;;;;5054452;28;20958;-77
2021/08/19 05:46:06;;;;;;;12.10;10.03;;;18.50;94.60;;;;;;5054481;28;20452;-77
2021/08/19 05:48:32;;;;;;;10.80;9.23;;;18.50;94.50;;;;;;5054681;28;20472;-77
2021/08/19 05:50:59;;;;;;;9.23;8.23;;;18.50;94.30;;;;;;5054399;28;20441;-77
2021/08/19 05:53:26;;;;;;;11.17;8.50;;;18.50;94.40;;;;;;5053973;28;20845;-77
2021/08/19 05:55:53;;;;;;;12.63;8.87;;;18.60;94.50;;;;;;5054368;28;20437;-77
2021/08/19 05:58:19;;;;;;;9.13;8.23;;;18.60;94.40;;;;;;5053769;28;20469;-77
2021/08/19 06:00:47;;;;;;;12.47;8.93;;;18.60;94.40;;;;;;5053861;28;20458;-77
2021/08/19 06:03:16;;;;;;;10.27;8.30;;;18.60;94.40;;;;;;5053877;28;20441;-77
2021/08/19 06:05:43;;;;;;;12.63;9.50;;;18.70;94.30;;;;;;5053110;28;20440;-76
2021/08/19 06:08:10;;;;;;;11.23;8.57;;;18.70;94.30;;;;;;5053350;28;20476;-76
2021/08/19 06:10:36;;;;;;;11.03;8.93;;;18.70;94.10;;;;;;5053323;28;20515;-77
2021/08/19 06:13:03;;;;;;;11.70;8.20;;;18.70;94.00;;;;;;5055946;28;20481;-77
2021/08/19 06:15:30;;;;;;;12.63;10.37;;;18.80;94.20;;;;;;5057884;28;20479;-77
2021/08/19 06:17:57;;;;;;;10.43;9.33;;;18.80;94.40;;;;;;5057989;28;20971;-76
2021/08/19 06:20:25;;;;;;;11.07;8.37;;;18.90;94.10;;;;;;5057935;28;20829;-77
2021/08/19 06:22:52;;;;;;;10.50;8.10;;;18.90;94.10;;;;;;5057377;28;20805;-77
2021/08/19 06:25:19;;;;;;;10.83;8.27;;;19.00;94.10;;;;;;5057925;28;20449;-77
2021/08/19 06:27:46;;;;;;;10.13;7.70;;;19.00;94.00;;;;;;5057759;28;20469;-77
2021/08/19 06:30:14;;;;;;;9.60;7.27;;;19.10;93.60;;;;;;5057943;28;20520;-76
2021/08/19 06:32:41;;;;;;;8.83;7.50;;;19.20;93.60;;;;;;5057838;28;20453;-77
2021/08/19 06:35:09;;;;;;;12.10;7.67;;;19.10;93.10;;;;;;5057715;28;20426;-77
2021/08/19 06:37:37;;;;;;;7.63;6.83;;;19.10;93.20;;;;;;5057037;28;20954;-75
2021/08/19 06:40:05;;;;;;;9.03;8.10;;;19.10;93.30;;;;;;5056793;28;20814;-76
2021/08/19 06:42:32;;;;;;;10.07;8.90;;;19.10;93.20;;;;;;5057070;28;20441;-76
2021/08/19 06:44:58;;;;;;;11.20;8.50;;;19.00;93.20;;;;;;5056834;28;20550;-76
2021/08/19 06:47:25;;;;;;;12.63;9.53;;;19.10;93.70;;;;;;5056769;28;20456;-76
2021/08/19 06:49:52;;;;;;;9.50;8.60;;;19.20;93.40;;;;;;5056689;28;20441;-76
2021/08/19 06:52:19;;;;;;;13.43;8.50;;;19.20;93.10;;;;;;5056813;28;20433;-76
2021/08/19 06:54:47;;;;;;;15.17;10.53;;;19.20;93.00;;;;;;5056599;28;20488;-74
2021/08/19 06:57:14;;;;;;;11.37;8.70;;;19.20;93.10;;;;;;5056520;28;20445;-74
2021/08/19 06:59:40;;;;;;;12.90;9.30;;;19.20;92.90;;;;;;5056169;28;20956;-76
2021/08/19 07:02:07;;;;;;;12.20;8.87;;;19.20;92.80;;;;;;5056510;28;20449;-74
2021/08/19 07:04:35;;;;;;;12.10;10.00;;;19.20;92.80;;;;;;5056491;28;20437;-74
2021/08/19 07:07:01;;;;;;;13.70;9.07;;;19.20;93.00;;;;;;5056423;28;20854;-74
2021/08/19 07:09:29;;;;;;;13.77;9.00;;;19.20;93.30;;;;;;5056537;28;20465;-74
2021/08/19 07:11:58;;;;;;;12.17;8.97;;;19.20;92.70;;;;;;5056356;28;20445;-74
2021/08/19 07:14:24;;;;;;;12.30;9.60;;;19.10;92.70;;;;;;5056169;28;20481;-74
2021/08/19 07:16:51;;;;;;;11.67;9.53;;;19.10;92.70;;;;;;5056223;28;20453;-73
2021/08/19 07:19:18;;;;;;;11.23;9.93;;;19.00;92.70;;;;;;5056134;28;20870;-74
2021/08/19 07:21:45;;;;;;;17.00;11.13;;;19.00;92.90;;;;;;5056181;28;20434;-75
2021/08/19 07:24:12;;;;;;;13.77;9.60;;;19.10;92.90;;;;;;5055520;28;20916;-74
2021/08/19 07:26:39;;;;;;;14.20;9.77;;;19.20;92.90;;;;;;5055719;28;20954;-74
2021/08/19 07:29:08;;;;;;;13.27;10.17;;;19.10;93.10;;;;;;5055983;28;20465;-74
2021/08/19 07:31:36;;;;;;;10.47;9.40;;;19.20;92.90;;;;;;5055985;28;20452;-74
2021/08/19 07:34:02;;;;;;;11.57;9.90;;;19.20;92.80;;;;;;5055776;28;20481;-74
2021/08/19 07:36:29;;;;;;;12.60;8.70;;;19.20;93.00;;;;;;5055866;28;20476;-74
2021/08/19 07:39:02;;;;;;;11.77;10.37;;;19.20;92.90;;;;;;5055741;28;20803;-74
2021/08/19 07:41:29;;;;;;;11.60;9.70;;;19.20;92.80;;;;;;5055698;28;20811;-74
2021/08/19 07:43:56;;;;;;;17.40;9.80;;;19.30;92.80;;;;;;5055688;28;20437;-74
2021/08/19 07:46:24;;;;;;;13.33;9.60;;;19.30;92.80;;;;;;5055615;28;20446;-74
2021/08/19 07:48:51;;;;;;;13.33;10.53;;;19.40;93.00;;;;;;5055512;28;20488;-74
2021/08/19 07:51:18;;;;;;;14.03;10.27;;;19.50;92.50;;;;;;5055230;28;20441;-75
2021/08/19 07:53:44;;;;;;;12.30;9.80;;;19.50;92.20;;;;;;5055641;28;20482;-74
2021/08/19 07:56:11;;;;;;;14.37;10.97;;;19.50;91.90;;;;;;5055113;28;20814;-74
2021/08/19 07:58:38;;;;;;;11.13;9.97;;;19.50;92.10;;;;;;5055669;28;20461;-74
2021/08/19 08:01:05;;;;;;;10.50;9.60;;;19.50;91.80;;;;;;5055046;28;20469;-74
2021/08/19 08:03:33;;;;;;;14.57;10.87;;;19.40;92.00;;;;;;5055310;28;20441;-74
2021/08/19 08:06:00;;;;;;;10.27;9.20;;;19.40;92.20;;;;;;5054932;28;20445;-74
2021/08/19 08:08:27;;;;;;;13.40;10.20;;;19.50;92.40;;;;;;5055431;28;20461;-74
2021/08/19 08:10:54;;;;;;;11.00;9.83;;;19.50;91.90;;;;;;5055220;28;20426;-74
2021/08/19 08:13:21;;;;;;;11.20;10.17;;;19.50;92.10;;;;;;5055032;28;20488;-75
2021/08/19 08:15:49;;;;;;;11.43;9.20;;;19.50;91.50;;;;;;5055078;28;20448;-74
2021/08/19 08:18:17;;;;;;;11.13;9.90;;;19.50;91.50;;;;;;5054995;28;20496;-74
2021/08/19 08:20:47;;;;;;;14.93;9.93;;;19.50;91.40;;;;;;5054674;28;20489;-74
2021/08/19 08:23:17;;;;;;;11.43;9.50;;;19.50;91.30;;;;;;5054953;28;20812;-74
2021/08/19 08:25:45;;;;;;;15.40;10.40;;;19.60;91.70;;;;;;5054891;28;20446;-74
2021/08/19 08:28:14;;;;;;;12.13;10.27;;;19.60;90.90;;;;;;5054453;28;20504;-74
2021/08/19 08:30:43;;;;;;;12.90;10.57;;;19.60;90.70;;;;;;5054778;28;20449;-74
2021/08/19 08:33:10;;;;;;;11.50;10.23;;;19.70;91.00;;;;;;5054655;28;20446;-74
2021/08/19 08:35:38;;;;;;;8.83;8.03;;;19.70;90.90;;;;;;5053765;28;20808;-74
2021/08/19 08:38:07;;;;;;;8.93;8.03;;;19.70;90.00;;;;;;5054218;28;21013;-74
2021/08/19 08:40:35;;;;;;;9.60;8.50;;;19.80;90.20;;;;;;5054497;28;20950;-74
2021/08/19 08:43:03;;;;;;;10.30;8.90;;;19.90;90.00;;;;;;5054510;28;20548;-75
2021/08/19 08:45:33;;;;;;;10.77;8.83;;;20.10;90.00;;;;;;5054751;28;20437;-74
2021/08/19 08:48:01;;;;;;;10.30;9.20;;;20.30;88.30;;;;;;5054451;28;20565;-74
2021/08/19 08:50:28;;;;;;;10.50;9.50;;;20.40;88.30;;;;;;5054717;28;20516;-74
2021/08/19 08:52:57;;;;;;;7.57;6.83;;;20.50;86.80;;;;;;5054105;28;20944;-74
2021/08/19 08:55:25;;;;;;;8.83;8.00;;;20.60;86.90;;;;;;5054204;28;20500;-74
2021/08/19 08:57:52;;;;;;;8.87;7.97;;;20.70;85.50;;;;;;5054443;28;20461;-75
2021/08/19 09:00:20;;;;;;;7.90;7.20;;;20.70;84.80;;;;;;5054149;28;20457;-74
2021/08/19 09:02:46;;;;;;;8.00;7.20;;;20.70;83.80;;;;;;5053909;28;20452;-74
2021/08/19 09:05:15;;;;;;;8.20;7.40;;;20.60;84.10;;;;;;5054231;28;20430;-74
2021/08/19 09:07:42;;;;;;;11.23;7.93;;;20.60;83.50;;;;;;5053771;28;20470;-74
2021/08/19 09:10:10;;;;;;;8.40;7.57;;;20.50;83.60;;;;;;5054092;28;20520;-74
2021/08/19 09:12:40;;;;;;;11.70;7.20;;;20.60;84.50;;;;;;5054041;28;20477;-74
2021/08/19 09:15:13;;;;;;;8.67;7.80;;;20.60;84.20;;;;;;5053656;28;20837;-74
2021/08/19 09:17:49;;;;;;;8.50;7.70;;;20.50;85.30;;;;;;5053878;28;20515;-74
2021/08/19 09:20:16;;;;;;;8.40;7.10;;;20.70;84.50;;;;;;5053858;28;20977;-75
2021/08/19 09:22:55;;;;;;;7.40;6.17;;;20.70;82.40;;;;;;5053539;28;20446;-75
2021/08/19 09:25:30;;;;;;;16.57;8.90;;;20.80;82.40;;;;;;5053476;28;20482;-75
2021/08/19 09:28:13;;;;;;;8.53;6.90;;;20.90;83.20;;;;;;5053786;28;20822;-74
2021/08/19 09:30:43;;;;;;;7.70;6.70;;;20.90;82.30;;;;;;5053737;28;20492;-74
2021/08/19 09:33:11;;;;;;;10.60;7.30;;;20.80;80.50;;;;;;5053729;28;20449;-74
2021/08/19 09:35:40;;;;;;;11.73;8.00;;;20.80;81.00;;;;;;5053310;28;20461;-74
2021/08/19 09:38:08;;;;;;;8.67;7.90;;;20.80;81.70;;;;;;5053579;28;20469;-74
2021/08/19 09:40:35;;;;;;;10.67;7.87;;;20.80;82.20;;;;;;5053560;28;20430;-75
2021/08/19 09:43:03;;;;;;;7.63;6.80;;;20.70;82.30;;;;;;5053547;28;20452;-74
2021/08/19 09:45:31;;;;;;;9.50;7.83;;;20.70;83.00;;;;;;5053131;28;20813;-74
2021/08/19 09:48:09;;;;;;;7.57;6.07;;;20.70;83.80;;;;;;5052024;28;20470;-75
2021/08/19 09:50:36;;;;;;;8.10;6.70;;;20.80;84.00;;;;;;5053145;28;20955;-74
2021/08/19 09:53:21;;;;;;;10.03;6.30;;;20.90;83.80;;;;;;5053342;28;20508;-74
2021/08/19 09:55:50;;;;;;;7.50;6.67;;;21.10;83.00;;;;;;5053344;28;20476;-74
2021/08/19 09:58:31;;;;;;;7.23;6.63;;;21.30;82.30;;;;;;5053350;28;20504;-75
2021/08/19 10:00:59;;;;;;;5.93;5.30;;;21.50;82.70;;;;;;5052980;28;20461;-74
2021/08/19 10:03:27;;;;;;;5.53;4.90;;;21.60;80.60;;;;;;5053373;28;20434;-74
2021/08/19 10:05:55;;;;;;;5.17;4.67;;;21.50;80.00;;;;;;5052980;28;20928;-74
2021/08/19 10:08:22;;;;;;;5.13;4.67;;;21.50;80.20;;;;;;5053163;28;20466;-75
2021/08/19 10:10:53;;;;;;;6.07;5.00;;;21.50;81.10;;;;;;5053344;28;20430;-75
2021/08/19 10:13:20;;;;;;;5.83;5.00;;;21.50;81.70;;;;;;5053008;28;20524;-74
2021/08/19 10:15:49;;;;;;;4.90;4.10;;;21.40;78.80;;;;;;5053171;28;20481;-74
2021/08/19 10:18:25;;;;;;;7.60;5.10;;;21.40;78.80;;;;;;5052827;28;20975;-74
2021/08/19 10:21:08;;;;;;;5.73;4.80;;;21.40;80.10;;;;;;5053484;28;20817;-74
2021/08/19 10:23:36;;;;;;;5.43;4.90;;;21.50;80.10;;;;;;5053164;28;20441;-74
2021/08/19 10:26:05;;;;;;;5.87;5.30;;;21.40;79.10;;;;;;5053093;28;20446;-74
2021/08/19 10:28:49;;;;;;;6.60;5.37;;;21.50;79.80;;;;;;5052696;28;20881;-75
2021/08/19 10:31:44;;;;;;;6.33;5.73;;;21.50;79.40;;;;;;5053148;28;20517;-75
2021/08/19 10:34:14;;;;;;;6.10;5.47;;;21.50;79.70;;;;;;5052964;28;20610;-75
2021/08/19 10:36:55;;;;;;;7.57;6.13;;;21.40;80.10;;;;;;5053225;28;20445;-75
2021/08/19 10:39:40;;;;;;;6.00;5.50;;;21.30;81.20;;;;;;5053864;28;20567;-74
2021/08/19 10:42:35;;;;;;;7.60;6.40;;;21.30;81.40;;;;;;5053041;28;20426;-74
2021/08/19 10:45:02;;;;;;;8.80;6.40;;;21.30;81.50;;;;;;5037498;28;20457;-74
2021/08/19 10:47:40;;;;;;;8.00;6.30;;;21.30;81.00;;;;;;5052772;28;20967;-74
2021/08/19 10:50:30;;;;;;;7.90;6.37;;;21.30;81.40;;;;;;5052926;28;20516;-75
2021/08/19 10:52:58;;;;;;;7.93;6.47;;;21.40;81.60;;;;;;5052646;28;20422;-75
2021/08/19 10:55:26;;;;;;;10.33;7.07;;;21.50;81.50;;;;;;5052839;28;20924;-75
2021/08/19 10:57:57;;;;;;;6.80;6.20;;;21.50;80.40;;;;;;5053153;28;20497;-75
2021/08/19 11:00:39;;;;;;;7.93;6.53;;;21.50;80.80;;;;;;5056276;28;20453;-75
2021/08/19 11:03:05;;;;;;;8.70;7.90;;;21.40;80.10;;;;;;5056488;28;20449;-75
2021/08/19 11:05:56;;;;;;;7.47;6.77;;;21.30;80.80;;;;;;5056476;28;20432;-75
2021/08/19 11:08:43;;;;;;;8.03;7.10;;;21.20;81.10;;;;;;5056310;28;20465;-75
2021/08/19 11:11:11;;;;;;;7.17;6.27;;;21.20;83.10;;;;;;5056438;28;20441;-75
2021/08/19 11:13:38;;;;;;;6.53;6.03;;;21.30;83.10;;;;;;5056356;28;20445;-75
2021/08/19 11:16:10;;;;;;;6.77;6.17;;;21.40;82.20;;;;;;5056301;28;20488;-75
2021/08/19 11:18:38;;;;;;;6.43;5.57;;;21.50;81.30;;;;;;5056148;28;20469;-75
2021/08/19 11:21:09;;;;;;;9.57;6.13;;;21.60;80.60;;;;;;5056240;28;20456;-75
2021/08/19 11:23:38;;;;;;;7.77;4.90;;;21.70;80.70;;;;;;5055832;28;20775;-75
2021/08/19 11:26:07;;;;;;;6.30;5.70;;;21.70;80.10;;;;;;5056008;28;20480;-75
2021/08/19 11:28:37;;;;;;;5.37;4.97;;;21.60;80.10;;;;;;5055787;28;20465;-75
2021/08/19 11:31:11;;;;;;;5.20;4.70;;;21.70;80.20;;;;;;5055967;28;20452;-75
2021/08/19 11:33:39;;;;;;;5.10;4.60;;;21.80;79.10;;;;;;5055971;28;20433;-75
2021/08/19 11:36:08;;;;;;;5.50;5.00;;;21.90;80.10;;;;;;5055776;28;20571;-75
2021/08/19 11:38:35;;;;;;;5.20;4.70;;;21.90;78.40;;;;;;5055682;28;20876;-75
2021/08/19 11:41:16;;;;;;;5.27;4.80;;;21.90;78.30;;;;;;5055771;28;20426;-75
2021/08/19 11:43:43;;;;;;;4.27;3.87;;;22.00;80.30;;;;;;5056014;28;20421;-75
2021/08/19 11:46:12;;;;;;;3.73;3.40;;;22.20;76.80;;;;;;5055363;28;20940;-75
2021/08/19 11:48:48;;;;;;;4.57;3.77;;;22.50;76.90;;;;;;5055587;28;20465;-74
2021/08/19 11:51:21;;;;;;;4.93;3.70;;;23.00;75.60;;;;;;5055620;28;20429;-75
2021/08/19 11:53:53;;;;;;;5.07;4.30;;;23.10;71.80;;;;;;5055791;28;20434;-74
2021/08/19 11:56:20;;;;;;;4.53;4.23;;;23.30;73.50;;;;;;5055713;28;20466;-74
2021/08/19 11:58:49;;;;;;;4.00;3.60;;;23.40;72.80;;;;;;5055313;28;20530;-75
2021/08/19 12:01:16;;;;;;;5.40;2.50;;;23.40;73.30;;;;;;5055370;28;20909;-75
2021/08/19 12:03:44;;;;;;;2.67;2.47;;;23.40;71.40;;;;;;5055401;28;20453;-75
2021/08/19 12:06:12;;;;;;;3.30;2.00;;;23.30;70.40;;;;;;5055348;28;20437;-75
2021/08/19 12:08:47;;;;;;;2.70;2.40;;;23.20;71.00;;;;;;5055149;28;20476;-75
2021/08/19 12:11:16;;;;;;;1.87;1.73;;;23.30;71.20;;;;;;5055849;28;20526;-75
2021/08/19 12:13:43;;;;;;;2.43;2.00;;;23.30;71.10;;;;;;5055826;28;20862;-75
2021/08/19 12:16:10;;;;;;;2.47;2.27;;;23.30;68.60;;;;;;5055069;28;20842;-75
2021/08/19 12:18:37;;;;;;;3.00;2.10;;;23.30;71.00;;;;;;5055062;28;20465;-75
2021/08/19 12:21:16;;;;;;;6.90;2.37;;;23.40;70.60;;;;;;5054991;28;20437;-75
2021/08/19 12:23:45;;;;;;;2.20;2.03;;;23.50;70.70;;;;;;5054987;28;20456;-75
2021/08/19 12:26:14;;;;;;;3.63;1.87;;;23.50;69.80;;;;;;5054925;28;20450;-74
2021/08/19 12:28:53;;;;;;;2.63;2.43;;;23.50;70.20;;;;;;5054819;28;20963;-74
2021/08/19 12:31:19;;;;;;;2.77;1.70;;;23.40;69.40;;;;;;5054893;28;20461;-74
2021/08/19 12:33:46;;;;;;;4.33;2.10;;;23.50;69.20;;;;;;5054821;28;20437;-75
2021/08/19 12:36:15;;;;;;;2.17;1.33;;;23.40;68.90;;;;;;5054314;28;21010;-75
2021/08/19 12:38:45;;;;;;;1.93;1.23;;;23.30;65.90;;;;;;5054821;28;20462;-75
2021/08/19 12:41:16;;;;;;;2.03;1.80;;;23.20;65.10;;;;;;5054654;28;20433;-75
2021/08/19 12:43:44;;;;;;;2.23;1.60;;;23.10;67.20;;;;;;5054905;28;20430;-75
2021/08/19 12:46:12;;;;;;;2.17;1.60;;;23.10;66.50;;;;;;5054651;28;20437;-75
2021/08/19 12:48:39;;;;;;;1.77;1.50;;;23.10;66.70;;;;;;5054458;28;20469;-74